sensor_id;sensor_type;location;lat;lon;timestamp;pressure;altitude;pressure_sealevel;temperature;humidity
29879;BME280;16752;53.364;-1.488;2023-02-13T08:08:11;102152.44;;;15.10;40.73
29879;BME280;16752;53.364;-1.488;2023-02-13T17:01:01;101941.66;;;16.04;37.99
29879;BME280;16752;53.364;-1.488;2023-02-13T17:15:54;101939.94;;;16.17;37.90
29879;BME280;16752;53.364;-1.488;2023-02-13T17:18:29;101940.34;;;15.40;39.16
29879;BME280;16752;53.364;-1.488;2023-02-13T17:20:59;101941.28;;;16.10;37.95
29879;BME280;16752;53.364;-1.488;2023-02-13T17:23:46;101939.66;;;16.22;37.87
29879;BME280;16752;53.364;-1.488;2023-02-13T17:26:12;101934.13;;;15.55;39.32
29879;BME280;16752;53.364;-1.488;2023-02-13T17:28:37;101941.28;;;15.24;39.94
29879;BME280;16752;53.364;-1.488;2023-02-13T17:33:49;101934.53;;;15.77;38.70
29879;BME280;16752;53.364;-1.488;2023-02-13T17:36:15;101941.22;;;15.83;38.72
29879;BME280;16752;53.364;-1.488;2023-02-13T17:38:40;101934.34;;;15.80;38.57
29879;BME280;16752;53.364;-1.488;2023-02-13T17:41:10;101938.13;;;15.76;38.91
29879;BME280;16752;53.364;-1.488;2023-02-13T17:43:38;101942.00;;;15.85;38.48
29879;BME280;16752;53.364;-1.488;2023-02-13T17:46:08;101952.06;;;15.50;39.34
29879;BME280;16752;53.364;-1.488;2023-02-13T17:48:43;101940.00;;;15.74;38.66
29879;BME280;16752;53.364;-1.488;2023-02-13T17:51:37;101950.00;;;14.96;40.49
29879;BME280;16752;53.364;-1.488;2023-02-13T18:13:02;101946.19;;;14.56;40.32
29879;BME280;16752;53.364;-1.488;2023-02-13T18:15:41;101943.88;;;14.66;40.11
29879;BME280;16752;53.364;-1.488;2023-02-13T18:18:09;101932.66;;;14.62;40.17
29879;BME280;16752;53.364;-1.488;2023-02-13T18:20:35;101939.97;;;14.57;40.29
29879;BME280;16752;53.364;-1.488;2023-02-13T18:23:00;101935.41;;;14.45;40.28
29879;BME280;16752;53.364;-1.488;2023-02-13T18:25:28;101934.03;;;14.38;40.24
29879;BME280;16752;53.364;-1.488;2023-02-13T18:27:54;101934.53;;;14.29;40.55
29879;BME280;16752;53.364;-1.488;2023-02-13T18:30:23;101937.16;;;14.29;40.69
29879;BME280;16752;53.364;-1.488;2023-02-13T18:32:54;101934.38;;;14.00;41.46
29879;BME280;16752;53.364;-1.488;2023-02-13T18:35:21;101946.31;;;13.74;41.57
29879;BME280;16752;53.364;-1.488;2023-02-13T18:37:50;101942.44;;;13.97;41.48
29879;BME280;16752;53.364;-1.488;2023-02-13T18:40:15;101943.78;;;14.04;41.07
29879;BME280;16752;53.364;-1.488;2023-02-13T18:42:42;101943.53;;;13.93;41.13
29879;BME280;16752;53.364;-1.488;2023-02-13T18:45:08;101939.97;;;13.94;41.08
29879;BME280;16752;53.364;-1.488;2023-02-13T18:47:34;101943.81;;;13.89;41.09
29879;BME280;16752;53.364;-1.488;2023-02-13T18:49:59;101948.09;;;13.74;41.47
29879;BME280;16752;53.364;-1.488;2023-02-13T18:52:24;101940.63;;;13.82;41.30
29879;BME280;16752;53.364;-1.488;2023-02-13T18:54:50;101944.53;;;13.75;41.19
29879;BME280;16752;53.364;-1.488;2023-02-13T18:57:15;101943.94;;;13.70;41.31
29879;BME280;16752;53.364;-1.488;2023-02-13T18:59:41;101948.56;;;13.65;41.26
29879;BME280;16752;53.364;-1.488;2023-02-13T19:02:07;101939.22;;;13.59;41.37
29879;BME280;16752;53.364;-1.488;2023-02-13T19:04:33;101946.44;;;13.56;41.44
29879;BME280;16752;53.364;-1.488;2023-02-13T19:06:59;101937.88;;;13.52;41.29
29879;BME280;16752;53.364;-1.488;2023-02-13T19:09:25;101947.38;;;13.55;41.64
29879;BME280;16752;53.364;-1.488;2023-02-13T19:11:50;101946.16;;;13.44;41.64
29879;BME280;16752;53.364;-1.488;2023-02-13T19:14:16;101943.28;;;13.49;41.50
29879;BME280;16752;53.364;-1.488;2023-02-13T19:16:44;101946.88;;;13.48;41.76
29879;BME280;16752;53.364;-1.488;2023-02-13T19:19:12;101946.88;;;13.48;41.88
29879;BME280;16752;53.364;-1.488;2023-02-13T19:21:38;101949.25;;;13.53;42.12
29879;BME280;16752;53.364;-1.488;2023-02-13T19:24:04;101942.44;;;13.49;42.22
29879;BME280;16752;53.364;-1.488;2023-02-13T19:26:30;101940.88;;;13.44;41.94
29879;BME280;16752;53.364;-1.488;2023-02-13T19:28:59;101941.75;;;13.45;41.79
29879;BME280;16752;53.364;-1.488;2023-02-13T19:31:27;101938.75;;;13.35;41.74
29879;BME280;16752;53.364;-1.488;2023-02-13T19:33:53;101939.06;;;13.29;41.88
29879;BME280;16752;53.364;-1.488;2023-02-13T19:36:20;101938.47;;;13.24;41.90
29879;BME280;16752;53.364;-1.488;2023-02-13T19:38:47;101932.78;;;13.14;41.83
29879;BME280;16752;53.364;-1.488;2023-02-13T19:41:16;101929.22;;;13.15;42.03
29879;BME280;16752;53.364;-1.488;2023-02-13T19:43:42;101933.25;;;13.05;42.11
29879;BME280;16752;53.364;-1.488;2023-02-13T19:46:14;101938.53;;;13.05;42.30
29879;BME280;16752;53.364;-1.488;2023-02-13T19:48:39;101929.69;;;13.06;42.34
29879;BME280;16752;53.364;-1.488;2023-02-13T19:51:12;101931.47;;;13.06;42.63
29879;BME280;16752;53.364;-1.488;2023-02-13T19:53:37;101819.56;;;12.31;42.79
29879;BME280;16752;53.364;-1.488;2023-02-13T19:56:06;101929.13;;;13.00;42.65
29879;BME280;16752;53.364;-1.488;2023-02-13T19:58:32;101933.19;;;12.90;44.16
29879;BME280;16752;53.364;-1.488;2023-02-13T20:01:14;101928.38;;;13.15;44.00
29879;BME280;16752;53.364;-1.488;2023-02-13T20:03:40;101928.38;;;13.32;43.31
29879;BME280;16752;53.364;-1.488;2023-02-13T20:06:07;101926.50;;;13.17;43.55
29879;BME280;16752;53.364;-1.488;2023-02-13T20:08:33;101928.97;;;13.37;43.23
29879;BME280;16752;53.364;-1.488;2023-02-13T20:10:59;101933.41;;;13.37;43.59
29879;BME280;16752;53.364;-1.488;2023-02-13T20:13:25;101932.84;;;13.48;43.30
29879;BME280;16752;53.364;-1.488;2023-02-13T20:15:50;101932.09;;;13.45;43.22
29879;BME280;16752;53.364;-1.488;2023-02-13T20:18:18;101924.31;;;13.42;43.11
29879;BME280;16752;53.364;-1.488;2023-02-13T20:20:46;101927.81;;;13.43;43.05
29879;BME280;16752;53.364;-1.488;2023-02-13T20:23:12;101921.94;;;13.38;42.85
29879;BME280;16752;53.364;-1.488;2023-02-13T20:25:38;101917.25;;;13.27;42.92
29879;BME280;16752;53.364;-1.488;2023-02-13T20:28:04;101916.47;;;13.25;42.74
29879;BME280;16752;53.364;-1.488;2023-02-13T20:30:30;101911.66;;;13.16;43.13
29879;BME280;16752;53.364;-1.488;2023-02-13T20:32:55;101904.69;;;13.15;42.96
29879;BME280;16752;53.364;-1.488;2023-02-13T20:35:21;101917.00;;;12.97;43.33
29879;BME280;16752;53.364;-1.488;2023-02-13T20:37:46;101912.38;;;13.02;43.01
29879;BME280;16752;53.364;-1.488;2023-02-13T20:40:12;101915.09;;;12.83;43.27
29879;BME280;16752;53.364;-1.488;2023-02-13T20:42:37;101916.47;;;12.91;43.08
29879;BME280;16752;53.364;-1.488;2023-02-13T20:45:03;101918.66;;;12.82;43.26
29879;BME280;16752;53.364;-1.488;2023-02-13T20:47:32;101917.25;;;12.93;43.26
29879;BME280;16752;53.364;-1.488;2023-02-13T20:50:32;101916.72;;;12.86;43.49
29879;BME280;16752;53.364;-1.488;2023-02-13T20:53:43;101913.31;;;12.84;43.36
29879;BME280;16752;53.364;-1.488;2023-02-13T20:59:33;101915.38;;;12.77;43.17
29879;BME280;16752;53.364;-1.488;2023-02-13T21:02:02;101914.75;;;12.72;43.04
29879;BME280;16752;53.364;-1.488;2023-02-13T21:04:31;101909.66;;;12.69;43.01
29879;BME280;16752;53.364;-1.488;2023-02-13T21:06:59;101918.41;;;12.70;42.91
29879;BME280;16752;53.364;-1.488;2023-02-13T21:12:43;101922.34;;;12.61;43.18
29879;BME280;16752;53.364;-1.488;2023-02-13T21:15:19;101911.44;;;12.69;43.50
29879;BME280;16752;53.364;-1.488;2023-02-13T21:18:01;101910.28;;;12.74;43.56
29879;BME280;16752;53.364;-1.488;2023-02-13T21:20:35;101911.34;;;12.70;43.41
29879;BME280;16752;53.364;-1.488;2023-02-13T21:23:09;101918.63;;;12.65;43.20
29879;BME280;16752;53.364;-1.488;2023-02-13T21:25:40;101920.00;;;12.55;43.25
29879;BME280;16752;53.364;-1.488;2023-02-13T21:28:07;101918.13;;;12.57;43.04
29879;BME280;16752;53.364;-1.488;2023-02-13T21:30:32;101917.59;;;12.50;43.11
29879;BME280;16752;53.364;-1.488;2023-02-13T21:33:03;101916.13;;;12.45;43.08
29879;BME280;16752;53.364;-1.488;2023-02-13T21:35:29;101920.84;;;12.38;43.10
29879;BME280;16752;53.364;-1.488;2023-02-13T21:37:54;101923.81;;;12.31;43.36
29879;BME280;16752;53.364;-1.488;2023-02-13T21:40:26;101917.63;;;12.32;43.11
29879;BME280;16752;53.364;-1.488;2023-02-13T21:42:52;101912.69;;;12.26;43.04
29879;BME280;16752;53.364;-1.488;2023-02-13T21:45:18;101915.22;;;12.27;43.12
29879;BME280;16752;53.364;-1.488;2023-02-13T21:47:44;101916.38;;;12.21;43.00
29879;BME280;16752;53.364;-1.488;2023-02-13T21:50:11;101906.09;;;12.17;43.07
29879;BME280;16752;53.364;-1.488;2023-02-13T21:52:37;101910.84;;;12.09;43.11
29879;BME280;16752;53.364;-1.488;2023-02-13T21:55:06;101917.88;;;12.08;43.20
29879;BME280;16752;53.364;-1.488;2023-02-13T21:57:31;101917.81;;;12.10;43.18
29879;BME280;16752;53.364;-1.488;2023-02-13T22:02:52;101916.72;;;11.57;43.97
29879;BME280;16752;53.364;-1.488;2023-02-13T22:05:18;101916.25;;;11.87;43.23
29879;BME280;16752;53.364;-1.488;2023-02-13T22:07:43;101907.03;;;11.97;43.23
29879;BME280;16752;53.364;-1.488;2023-02-13T22:10:27;101909.66;;;11.78;43.53
29879;BME280;16752;53.364;-1.488;2023-02-13T22:12:52;101904.56;;;11.94;43.42
29879;BME280;16752;53.364;-1.488;2023-02-13T22:15:18;101906.91;;;12.00;43.37
29879;BME280;16752;53.364;-1.488;2023-02-13T22:17:43;101903.56;;;11.97;43.18
29879;BME280;16752;53.364;-1.488;2023-02-13T22:20:09;101904.06;;;11.86;43.50
29879;BME280;16752;53.364;-1.488;2023-02-13T22:22:35;101898.59;;;11.90;43.35
29879;BME280;16752;53.364;-1.488;2023-02-13T22:25:01;101910.78;;;11.91;43.42
29879;BME280;16752;53.364;-1.488;2023-02-13T22:27:26;101899.88;;;11.82;43.25
29879;BME280;16752;53.364;-1.488;2023-02-13T22:29:51;101898.72;;;11.87;43.31
29879;BME280;16752;53.364;-1.488;2023-02-13T22:32:17;101891.22;;;11.80;43.28
29879;BME280;16752;53.364;-1.488;2023-02-13T22:34:42;101891.88;;;11.64;43.53
29879;BME280;16752;53.364;-1.488;2023-02-13T22:37:08;101885.03;;;11.81;43.52
29879;BME280;16752;53.364;-1.488;2023-02-13T22:39:33;101881.63;;;11.79;43.56
29879;BME280;16752;53.364;-1.488;2023-02-13T22:41:59;101886.03;;;11.78;43.30
29879;BME280;16752;53.364;-1.488;2023-02-13T22:44:24;101887.25;;;11.70;43.70
29879;BME280;16752;53.364;-1.488;2023-02-13T22:46:49;101884.19;;;11.80;43.37
29879;BME280;16752;53.364;-1.488;2023-02-13T22:49:15;101881.81;;;11.74;43.46
29879;BME280;16752;53.364;-1.488;2023-02-13T22:51:40;101877.44;;;11.75;43.03
29879;BME280;16752;53.364;-1.488;2023-02-13T22:54:05;101878.34;;;11.74;43.46
29879;BME280;16752;53.364;-1.488;2023-02-13T22:56:31;101884.78;;;11.67;43.22
